sensor_id;sensor_type;location;lat;lon;timestamp;pressure;altitude;pressure_sealevel;temperature;humidity
85641;BME280;76065;47.182;27.506;2024-03-23T00:56:16;100360.63;;;6.26;78.07
85641;BME280;76065;47.182;27.506;2024-03-23T00:58:42;100368.09;;;6.19;78.44
85641;BME280;76065;47.182;27.506;2024-03-23T01:01:07;100369.72;;;6.20;78.91
85641;BME280;76065;47.182;27.506;2024-03-23T01:03:33;100361.94;;;6.14;78.67
85641;BME280;76065;47.182;27.506;2024-03-23T01:06:02;100360.03;;;6.14;78.37
85641;BME280;76065;47.182;27.506;2024-03-23T01:08:29;100356.84;;;6.12;78.57
85641;BME280;76065;47.182;27.506;2024-03-23T01:10:58;100351.19;;;6.03;79.19
85641;BME280;76065;47.182;27.506;2024-03-23T01:13:24;100352.75;;;5.99;79.32
85641;BME280;76065;47.182;27.506;2024-03-23T01:15:54;100355.41;;;5.94;79.27
85641;BME280;76065;47.182;27.506;2024-03-23T01:18:20;100353.78;;;5.88;79.35
85641;BME280;76065;47.182;27.506;2024-03-23T01:20:47;100362.53;;;5.84;79.41
85641;BME280;76065;47.182;27.506;2024-03-23T01:23:13;100360.34;;;5.76;79.81
85641;BME280;76065;47.182;27.506;2024-03-23T01:25:38;100348.81;;;5.70;79.93
85641;BME280;76065;47.182;27.506;2024-03-23T01:28:05;100348.31;;;5.78;80.38
85641;BME280;76065;47.182;27.506;2024-03-23T01:30:34;100349.94;;;5.79;79.81
85641;BME280;76065;47.182;27.506;2024-03-23T01:33:00;100343.56;;;5.85;79.92
85641;BME280;76065;47.182;27.506;2024-03-23T01:35:25;100338.72;;;5.82;79.86
85641;BME280;76065;47.182;27.506;2024-03-23T01:37:51;100335.28;;;5.82;79.61
85641;BME280;76065;47.182;27.506;2024-03-23T01:40:17;100328.84;;;5.78;79.61
85641;BME280;76065;47.182;27.506;2024-03-23T01:42:42;100327.47;;;5.75;79.89
85641;BME280;76065;47.182;27.506;2024-03-23T01:45:09;100344.88;;;5.78;80.00
85641;BME280;76065;47.182;27.506;2024-03-23T01:47:37;100336.25;;;5.65;79.88
85641;BME280;76065;47.182;27.506;2024-03-23T01:50:03;100335.91;;;5.62;80.46
85641;BME280;76065;47.182;27.506;2024-03-23T01:52:29;100329.47;;;5.58;80.47
85641;BME280;76065;47.182;27.506;2024-03-23T01:54:55;100330.81;;;5.55;80.39
85641;BME280;76065;47.182;27.506;2024-03-23T01:57:21;100328.66;;;5.52;80.60
85641;BME280;76065;47.182;27.506;2024-03-23T01:59:48;100335.09;;;5.56;80.19
85641;BME280;76065;47.182;27.506;2024-03-23T02:02:13;100329.38;;;5.43;80.47
85641;BME280;76065;47.182;27.506;2024-03-23T02:04:39;100328.38;;;5.49;80.35
85641;BME280;76065;47.182;27.506;2024-03-23T02:07:06;100322.75;;;5.50;80.53
85641;BME280;76065;47.182;27.506;2024-03-23T02:09:34;100331.06;;;5.54;80.69
85641;BME280;76065;47.182;27.506;2024-03-23T02:12:02;100317.09;;;5.42;81.13
85641;BME280;76065;47.182;27.506;2024-03-23T02:14:28;100315.22;;;5.37;81.78
85641;BME280;76065;47.182;27.506;2024-03-23T02:16:54;100313.31;;;5.33;81.69
85641;BME280;76065;47.182;27.506;2024-03-23T02:19:19;100317.50;;;5.24;81.87
85641;BME280;76065;47.182;27.506;2024-03-23T02:21:45;100307.78;;;5.12;82.22
85641;BME280;76065;47.182;27.506;2024-03-23T02:24:12;100265.09;;;4.81;82.67
85641;BME280;76065;47.182;27.506;2024-03-23T02:26:38;100298.84;;;4.97;83.21
85641;BME280;76065;47.182;27.506;2024-03-23T02:29:03;100299.41;;;4.99;83.30
85641;BME280;76065;47.182;27.506;2024-03-23T02:31:29;100311.44;;;5.01;82.80
85641;BME280;76065;47.182;27.506;2024-03-23T02:33:55;100305.31;;;5.01;83.50
85641;BME280;76065;47.182;27.506;2024-03-23T02:36:20;100313.03;;;5.02;83.32
85641;BME280;76065;47.182;27.506;2024-03-23T02:38:46;100315.16;;;5.00;83.49
85641;BME280;76065;47.182;27.506;2024-03-23T02:41:12;100314.59;;;4.98;83.70
85641;BME280;76065;47.182;27.506;2024-03-23T02:43:38;100305.72;;;4.88;84.36
85641;BME280;76065;47.182;27.506;2024-03-23T02:46:03;100299.31;;;4.89;83.06
85641;BME280;76065;47.182;27.506;2024-03-23T02:48:29;100307.41;;;4.99;83.19
85641;BME280;76065;47.182;27.506;2024-03-23T02:50:55;100295.09;;;4.98;82.37
85641;BME280;76065;47.182;27.506;2024-03-23T02:53:21;100309.59;;;5.07;82.68
85641;BME280;76065;47.182;27.506;2024-03-23T02:55:47;100302.88;;;4.99;82.91
85641;BME280;76065;47.182;27.506;2024-03-23T02:58:13;100299.66;;;4.97;82.97
85641;BME280;76065;47.182;27.506;2024-03-23T03:00:38;100299.69;;;5.02;82.93
85641;BME280;76065;47.182;27.506;2024-03-23T03:03:04;100296.19;;;4.97;82.74
85641;BME280;76065;47.182;27.506;2024-03-23T03:05:30;100292.66;;;4.91;83.59
85641;BME280;76065;47.182;27.506;2024-03-23T03:07:55;100292.13;;;4.89;82.68
85641;BME280;76065;47.182;27.506;2024-03-23T03:10:21;100275.53;;;4.87;82.62
85641;BME280;76065;47.182;27.506;2024-03-23T03:12:46;100279.78;;;4.83;82.72
85641;BME280;76065;47.182;27.506;2024-03-23T03:15:12;100280.28;;;4.80;84.04
85641;BME280;76065;47.182;27.506;2024-03-23T03:17:38;100272.00;;;4.77;83.25
85641;BME280;76065;47.182;27.506;2024-03-23T03:20:04;100259.06;;;4.63;84.19
85641;BME280;76065;47.182;27.506;2024-03-23T03:22:30;100264.59;;;4.57;84.79
85641;BME280;76065;47.182;27.506;2024-03-23T03:24:56;100268.56;;;4.54;84.83
85641;BME280;76065;47.182;27.506;2024-03-23T03:27:21;100249.53;;;4.46;84.48
85641;BME280;76065;47.182;27.506;2024-03-23T03:29:48;100265.06;;;4.49;85.38
85641;BME280;76065;47.182;27.506;2024-03-23T03:32:14;100251.72;;;4.49;84.89
85641;BME280;76065;47.182;27.506;2024-03-23T03:34:39;100255.38;;;4.43;84.95
85641;BME280;76065;47.182;27.506;2024-03-23T03:37:05;100266.91;;;4.48;85.20
85641;BME280;76065;47.182;27.506;2024-03-23T03:39:30;100253.00;;;4.46;85.32
85641;BME280;76065;47.182;27.506;2024-03-23T03:41:56;100249.00;;;4.44;85.11
85641;BME280;76065;47.182;27.506;2024-03-23T03:44:22;100239.91;;;4.40;85.40
85641;BME280;76065;47.182;27.506;2024-03-23T03:46:47;100254.41;;;4.49;85.47
85641;BME280;76065;47.182;27.506;2024-03-23T03:49:13;100233.22;;;4.37;85.21
85641;BME280;76065;47.182;27.506;2024-03-23T03:51:38;100245.00;;;4.46;85.52
85641;BME280;76065;47.182;27.506;2024-03-23T03:54:04;100239.94;;;4.45;85.20
85641;BME280;76065;47.182;27.506;2024-03-23T03:56:29;100200.50;;;4.20;84.98
85641;BME280;76065;47.182;27.506;2024-03-23T03:58:55;100230.78;;;4.36;84.73
85641;BME280;76065;47.182;27.506;2024-03-23T04:01:21;100234.19;;;4.31;85.61
85641;BME280;76065;47.182;27.506;2024-03-23T04:03:46;100228.81;;;4.26;85.52
85641;BME280;76065;47.182;27.506;2024-03-23T04:06:18;100236.81;;;4.26;85.70
85641;BME280;76065;47.182;27.506;2024-03-23T04:08:44;100226.28;;;4.14;85.54
85641;BME280;76065;47.182;27.506;2024-03-23T04:11:10;100237.53;;;4.16;85.91
85641;BME280;76065;47.182;27.506;2024-03-23T04:13:36;100235.34;;;4.13;86.32
85641;BME280;76065;47.182;27.506;2024-03-23T04:16:01;100217.13;;;4.05;86.11
85641;BME280;76065;47.182;27.506;2024-03-23T04:18:27;100226.00;;;4.11;85.94
85641;BME280;76065;47.182;27.506;2024-03-23T04:20:53;100222.34;;;4.17;86.05
85641;BME280;76065;47.182;27.506;2024-03-23T04:23:18;100232.56;;;4.25;85.96
85641;BME280;76065;47.182;27.506;2024-03-23T04:25:44;100231.03;;;4.34;84.83
85641;BME280;76065;47.182;27.506;2024-03-23T04:28:09;100228.84;;;4.85;83.26
85641;BME280;76065;47.182;27.506;2024-03-23T04:30:35;100218.25;;;5.37;80.58
85641;BME280;76065;47.182;27.506;2024-03-23T04:33:00;100227.59;;;5.86;78.23
85641;BME280;76065;47.182;27.506;2024-03-23T04:35:26;100222.38;;;6.27;76.66
85641;BME280;76065;47.182;27.506;2024-03-23T04:37:53;100232.63;;;6.60;75.15
85641;BME280;76065;47.182;27.506;2024-03-23T04:40:19;100221.66;;;6.82;74.01
85641;BME280;76065;47.182;27.506;2024-03-23T04:42:44;100228.06;;;7.11;73.00
85641;BME280;76065;47.182;27.506;2024-03-23T04:45:10;100215.13;;;7.48;71.20
85641;BME280;76065;47.182;27.506;2024-03-23T04:47:39;100233.22;;;7.87;69.83
85641;BME280;76065;47.182;27.506;2024-03-23T04:50:04;100226.94;;;8.12;68.83
85641;BME280;76065;47.182;27.506;2024-03-23T04:52:30;100218.53;;;8.28;67.30
85641;BME280;76065;47.182;27.506;2024-03-23T04:54:56;100218.44;;;8.54;67.29
85641;BME280;76065;47.182;27.506;2024-03-23T04:57:22;100223.91;;;9.06;65.07
85641;BME280;76065;47.182;27.506;2024-03-23T04:59:47;100220.56;;;9.43;63.80
85641;BME280;76065;47.182;27.506;2024-03-23T05:02:14;100214.88;;;9.73;62.42
85641;BME280;76065;47.182;27.506;2024-03-23T05:04:39;100209.63;;;10.06;61.53
85641;BME280;76065;47.182;27.506;2024-03-23T05:07:06;100209.53;;;10.35;60.01
85641;BME280;76065;47.182;27.506;2024-03-23T05:09:31;100202.66;;;10.61;59.01
85641;BME280;76065;47.182;27.506;2024-03-23T05:11:59;100207.03;;;10.57;59.32
85641;BME280;76065;47.182;27.506;2024-03-23T05:14:26;100208.97;;;10.89;57.54
85641;BME280;76065;47.182;27.506;2024-03-23T05:16:52;100209.00;;;11.02;57.74
85641;BME280;76065;47.182;27.506;2024-03-23T05:19:18;100204.91;;;11.51;56.67
85641;BME280;76065;47.182;27.506;2024-03-23T05:21:44;100205.97;;;11.50;55.97
85641;BME280;76065;47.182;27.506;2024-03-23T05:24:09;100201.81;;;10.98;56.85
85641;BME280;76065;47.182;27.506;2024-03-23T05:26:35;100193.59;;;10.89;57.28
85641;BME280;76065;47.182;27.506;2024-03-23T05:29:02;100206.81;;;10.72;58.32
85641;BME280;76065;47.182;27.506;2024-03-23T05:31:28;100198.66;;;10.77;58.09
85641;BME280;76065;47.182;27.506;2024-03-23T05:33:55;100206.44;;;11.24;57.81
85641;BME280;76065;47.182;27.506;2024-03-23T05:36:21;100209.66;;;11.26;56.67
85641;BME280;76065;47.182;27.506;2024-03-23T05:38:47;100200.19;;;11.56;56.10
85641;BME280;76065;47.182;27.506;2024-03-23T05:41:13;100203.41;;;11.86;54.48
85641;BME280;76065;47.182;27.506;2024-03-23T05:43:39;100210.47;;;12.23;53.39
85641;BME280;76065;47.182;27.506;2024-03-23T05:46:04;100214.16;;;12.49;53.35
85641;BME280;76065;47.182;27.506;2024-03-23T05:48:31;100207.16;;;12.84;51.97
85641;BME280;76065;47.182;27.506;2024-03-23T05:50:57;100203.41;;;13.16;50.85
85641;BME280;76065;47.182;27.506;2024-03-23T05:53:24;100206.44;;;13.00;51.06
85641;BME280;76065;47.182;27.506;2024-03-23T05:55:50;100204.97;;;13.17;50.35
85641;BME280;76065;47.182;27.506;2024-03-23T05:58:17;100204.47;;;13.45;49.70
85641;BME280;76065;47.182;27.506;2024-03-23T06:00:43;100202.28;;;13.47;49.42
85641;BME280;76065;47.182;27.506;2024-03-23T06:03:09;100201.81;;;13.54;49.11
85641;BME280;76065;47.182;27.506;2024-03-23T06:05:37;100201.34;;;13.60;49.33
85641;BME280;76065;47.182;27.506;2024-03-23T06:08:04;100199.66;;;13.73;48.97
85641;BME280;76065;47.182;27.506;2024-03-23T06:10:30;100204.03;;;14.17;47.81
85641;BME280;76065;47.182;27.506;2024-03-23T06:12:57;100205.06;;;14.38;46.39
85641;BME280;76065;47.182;27.506;2024-03-23T06:15:24;100194.69;;;14.58;46.28
85641;BME280;76065;47.182;27.506;2024-03-23T06:17:49;100165.19;;;14.30;46.81
85641;BME280;76065;47.182;27.506;2024-03-23T06:20:15;100192.25;;;15.08;45.28
85641;BME280;76065;47.182;27.506;2024-03-23T06:22:40;100203.19;;;15.28;44.53
85641;BME280;76065;47.182;27.506;2024-03-23T06:25:07;100199.94;;;15.43;44.63
85641;BME280;76065;47.182;27.506;2024-03-23T06:27:32;100200.66;;;15.70;43.29
85641;BME280;76065;47.182;27.506;2024-03-23T06:30:01;100192.91;;;16.10;42.82
85641;BME280;76065;47.182;27.506;2024-03-23T06:32:27;100185.56;;;16.10;41.85
85641;BME280;76065;47.182;27.506;2024-03-23T06:34:54;100173.94;;;15.80;43.37
85641;BME280;76065;47.182;27.506;2024-03-23T06:37:20;100189.34;;;16.18;42.53
85641;BME280;76065;47.182;27.506;2024-03-23T06:39:46;100185.63;;;16.22;42.00
85641;BME280;76065;47.182;27.506;2024-03-23T06:42:12;100182.56;;;16.65;41.12
85641;BME280;76065;47.182;27.506;2024-03-23T06:44:38;100171.94;;;16.60;42.08
85641;BME280;76065;47.182;27.506;2024-03-23T06:47:04;100186.66;;;16.92;40.77
85641;BME280;76065;47.182;27.506;2024-03-23T06:49:30;100180.53;;;16.95;40.67
85641;BME280;76065;47.182;27.506;2024-03-23T06:51:55;100188.47;;;17.33;39.79
85641;BME280;76065;47.182;27.506;2024-03-23T06:54:21;100182.72;;;17.14;40.12
85641;BME280;76065;47.182;27.506;2024-03-23T06:56:47;100181.66;;;18.00;39.21
85641;BME280;76065;47.182;27.506;2024-03-23T06:59:12;100172.78;;;18.15;37.97
85641;BME280;76065;47.182;27.506;2024-03-23T07:01:38;100184.84;;;17.77;38.70
85641;BME280;76065;47.182;27.506;2024-03-23T07:04:04;100170.31;;;17.61;39.77
85641;BME280;76065;47.182;27.506;2024-03-23T07:06:30;100173.84;;;17.62;39.75
85641;BME280;76065;47.182;27.506;2024-03-23T07:08:56;100170.75;;;17.39;40.10
85641;BME280;76065;47.182;27.506;2024-03-23T07:11:22;100164.53;;;17.63;39.48
85641;BME280;76065;47.182;27.506;2024-03-23T07:13:52;100147.88;;;17.76;39.01
85641;BME280;76065;47.182;27.506;2024-03-23T07:16:20;100154.66;;;17.83;38.90
85641;BME280;76065;47.182;27.506;2024-03-23T07:18:45;100156.38;;;17.75;39.20
85641;BME280;76065;47.182;27.506;2024-03-23T07:21:11;100160.06;;;18.07;38.96
85641;BME280;76065;47.182;27.506;2024-03-23T07:23:37;100149.69;;;18.24;38.61
85641;BME280;76065;47.182;27.506;2024-03-23T07:26:04;100153.63;;;18.39;38.06
85641;BME280;76065;47.182;27.506;2024-03-23T07:28:32;100152.41;;;18.64;37.35
85641;BME280;76065;47.182;27.506;2024-03-23T07:31:12;100159.66;;;18.73;36.96
85641;BME280;76065;47.182;27.506;2024-03-23T07:33:43;100146.31;;;19.77;35.89
85641;BME280;76065;47.182;27.506;2024-03-23T07:36:09;100152.91;;;20.11;34.75
85641;BME280;76065;47.182;27.506;2024-03-23T07:38:35;100141.06;;;20.23;34.67
85641;BME280;76065;47.182;27.506;2024-03-23T07:41:13;100140.38;;;19.91;35.22
85641;BME280;76065;47.182;27.506;2024-03-23T07:43:40;100133.28;;;19.39;35.21
85641;BME280;76065;47.182;27.506;2024-03-23T07:46:06;100133.28;;;19.55;35.10
85641;BME280;76065;47.182;27.506;2024-03-23T07:48:32;100135.94;;;19.51;36.02
85641;BME280;76065;47.182;27.506;2024-03-23T07:51:00;100127.41;;;19.37;35.90
85641;BME280;76065;47.182;27.506;2024-03-23T07:53:26;100141.13;;;20.07;34.10
85641;BME280;76065;47.182;27.506;2024-03-23T07:55:57;100141.06;;;19.53;34.65
85641;BME280;76065;47.182;27.506;2024-03-23T07:58:23;100135.88;;;19.83;34.95
85641;BME280;76065;47.182;27.506;2024-03-23T08:00:49;100138.78;;;20.44;34.26
85641;BME280;76065;47.182;27.506;2024-03-23T08:03:15;100136.78;;;20.83;33.16
85641;BME280;76065;47.182;27.506;2024-03-23T08:05:41;100131.28;;;21.02;32.70
85641;BME280;76065;47.182;27.506;2024-03-23T08:08:07;100123.66;;;21.34;32.02
85641;BME280;76065;47.182;27.506;2024-03-23T08:10:33;100132.34;;;19.98;33.50
85641;BME280;76065;47.182;27.506;2024-03-23T08:12:58;100128.22;;;19.88;34.47
85641;BME280;76065;47.182;27.506;2024-03-23T08:15:24;100124.16;;;19.82;35.94
85641;BME280;76065;47.182;27.506;2024-03-23T08:17:50;100126.50;;;19.65;35.05
85641;BME280;76065;47.182;27.506;2024-03-23T08:20:15;100112.56;;;20.04;33.74
85641;BME280;76065;47.182;27.506;2024-03-23T08:22:41;100116.88;;;20.25;34.39
85641;BME280;76065;47.182;27.506;2024-03-23T08:25:07;100123.59;;;20.46;32.86
85641;BME280;76065;47.182;27.506;2024-03-23T08:27:33;100111.13;;;20.91;32.10
85641;BME280;76065;47.182;27.506;2024-03-23T08:29:58;100110.66;;;21.08;31.36
85641;BME280;76065;47.182;27.506;2024-03-23T08:32:24;100113.16;;;20.94;32.21
85641;BME280;76065;47.182;27.506;2024-03-23T08:34:50;100110.59;;;21.50;30.28
85641;BME280;76065;47.182;27.506;2024-03-23T08:37:15;100116.81;;;21.24;31.07
85641;BME280;76065;47.182;27.506;2024-03-23T08:39:43;100106.00;;;22.14;29.50
85641;BME280;76065;47.182;27.506;2024-03-23T08:42:09;100097.00;;;22.47;28.86
85641;BME280;76065;47.182;27.506;2024-03-23T08:44:34;100091.38;;;23.10;29.12
85641;BME280;76065;47.182;27.506;2024-03-23T08:47:01;100087.78;;;23.06;29.06
85641;BME280;76065;47.182;27.506;2024-03-23T08:49:27;100091.28;;;22.62;29.23
85641;BME280;76065;47.182;27.506;2024-03-23T08:51:52;100077.75;;;22.10;30.84
85641;BME280;76065;47.182;27.506;2024-03-23T08:54:19;100079.63;;;21.50;30.74
85641;BME280;76065;47.182;27.506;2024-03-23T08:56:46;100081.31;;;21.58;31.97
85641;BME280;76065;47.182;27.506;2024-03-23T08:59:11;100070.53;;;21.19;32.07
85641;BME280;76065;47.182;27.506;2024-03-23T09:01:37;100072.31;;;20.43;33.72
85641;BME280;76065;47.182;27.506;2024-03-23T09:04:03;100071.53;;;20.62;32.60
85641;BME280;76065;47.182;27.506;2024-03-23T09:06:29;100065.59;;;20.83;32.79
85641;BME280;76065;47.182;27.506;2024-03-23T09:08:55;100059.09;;;20.91;32.79
85641;BME280;76065;47.182;27.506;2024-03-23T09:11:20;100058.13;;;20.80;33.55
85641;BME280;76065;47.182;27.506;2024-03-23T09:13:46;100044.63;;;20.68;31.99
85641;BME280;76065;47.182;27.506;2024-03-23T09:16:12;100040.78;;;20.30;33.77
85641;BME280;76065;47.182;27.506;2024-03-23T09:18:38;100044.53;;;20.22;33.10
85641;BME280;76065;47.182;27.506;2024-03-23T09:21:11;100033.44;;;20.34;33.91
85641;BME280;76065;47.182;27.506;2024-03-23T09:23:38;100035.56;;;19.48;34.70
85641;BME280;76065;47.182;27.506;2024-03-23T09:26:04;100037.56;;;19.86;35.23
85641;BME280;76065;47.182;27.506;2024-03-23T09:28:30;100043.72;;;19.64;35.71
85641;BME280;76065;47.182;27.506;2024-03-23T09:31:05;100037.00;;;19.77;36.39
85641;BME280;76065;47.182;27.506;2024-03-23T09:33:31;100023.97;;;20.09;34.07
85641;BME280;76065;47.182;27.506;2024-03-23T09:35:57;100021.88;;;20.22;34.21
85641;BME280;76065;47.182;27.506;2024-03-23T09:38:23;100027.84;;;20.08;34.07
85641;BME280;76065;47.182;27.506;2024-03-23T09:40:53;100014.75;;;19.79;35.19
85641;BME280;76065;47.182;27.506;2024-03-23T09:43:19;100024.47;;;19.76;36.05
85641;BME280;76065;47.182;27.506;2024-03-23T09:45:45;100009.88;;;19.69;35.04
85641;BME280;76065;47.182;27.506;2024-03-23T09:48:12;100010.13;;;19.44;35.13
85641;BME280;76065;47.182;27.506;2024-03-23T09:50:41;100005.88;;;19.47;35.28
85641;BME280;76065;47.182;27.506;2024-03-23T09:53:07;100003.38;;;19.57;35.42
85641;BME280;76065;47.182;27.506;2024-03-23T09:55:34;99995.22;;;20.19;38.88
85641;BME280;76065;47.182;27.506;2024-03-23T09:58:02;100003.25;;;20.73;33.84
85641;BME280;76065;47.182;27.506;2024-03-23T10:00:27;99987.63;;;20.73;34.68
85641;BME280;76065;47.182;27.506;2024-03-23T10:02:56;99999.00;;;20.75;33.43
85641;BME280;76065;47.182;27.506;2024-03-23T10:05:26;99982.69;;;20.60;34.04
85641;BME280;76065;47.182;27.506;2024-03-23T10:07:53;99993.63;;;20.82;33.07
85641;BME280;76065;47.182;27.506;2024-03-23T10:10:19;99983.63;;;20.44;34.04
85641;BME280;76065;47.182;27.506;2024-03-23T10:12:48;99975.59;;;20.32;35.12
85641;BME280;76065;47.182;27.506;2024-03-23T10:15:22;99965.63;;;20.66;34.83
85641;BME280;76065;47.182;27.506;2024-03-23T10:17:48;99963.34;;;20.72;33.85
85641;BME280;76065;47.182;27.506;2024-03-23T10:20:19;99965.78;;;20.31;34.05
85641;BME280;76065;47.182;27.506;2024-03-23T10:22:45;99956.19;;;20.41;33.92
85641;BME280;76065;47.182;27.506;2024-03-23T10:25:11;99964.38;;;20.64;32.81
85641;BME280;76065;47.182;27.506;2024-03-23T10:27:39;99958.88;;;20.37;34.62
85641;BME280;76065;47.182;27.506;2024-03-23T10:30:12;99944.94;;;20.69;33.61
85641;BME280;76065;47.182;27.506;2024-03-23T10:32:38;99932.38;;;20.41;33.75
85641;BME280;76065;47.182;27.506;2024-03-23T10:35:17;99932.28;;;20.61;33.07
85641;BME280;76065;47.182;27.506;2024-03-23T10:37:51;99926.38;;;20.59;33.38
85641;BME280;76065;47.182;27.506;2024-03-23T10:40:17;99925.59;;;21.11;33.12
85641;BME280;76065;47.182;27.506;2024-03-23T10:42:44;99927.44;;;21.92;31.39
85641;BME280;76065;47.182;27.506;2024-03-23T10:45:10;99916.16;;;21.68;32.11
85641;BME280;76065;47.182;27.506;2024-03-23T10:47:36;99916.66;;;21.43;31.75
85641;BME280;76065;47.182;27.506;2024-03-23T10:50:05;99911.13;;;22.07;30.53
85641;BME280;76065;47.182;27.506;2024-03-23T10:52:34;99904.97;;;21.83;29.68
85641;BME280;76065;47.182;27.506;2024-03-23T10:55:05;99898.38;;;22.25;30.72
85641;BME280;76065;47.182;27.506;2024-03-23T10:57:40;99900.28;;;22.21;31.67
85641;BME280;76065;47.182;27.506;2024-03-23T11:00:07;99893.34;;;22.30;30.37
85641;BME280;76065;47.182;27.506;2024-03-23T11:02:34;99891.53;;;22.05;30.06
85641;BME280;76065;47.182;27.506;2024-03-23T11:04:59;99873.81;;;22.43;30.13
85641;BME280;76065;47.182;27.506;2024-03-23T11:07:31;99882.69;;;22.25;30.56
85641;BME280;76065;47.182;27.506;2024-03-23T11:09:57;99882.47;;;22.45;30.00
85641;BME280;76065;47.182;27.506;2024-03-23T11:14:54;99866.94;;;22.66;31.73
85641;BME280;76065;47.182;27.506;2024-03-23T11:17:21;99863.41;;;23.35;29.25
85641;BME280;76065;47.182;27.506;2024-03-23T11:20:00;99860.78;;;22.87;29.63
85641;BME280;76065;47.182;27.506;2024-03-23T11:22:45;99861.56;;;22.29;30.39
85641;BME280;76065;47.182;27.506;2024-03-23T11:27:44;99841.25;;;21.57;31.55
85641;BME280;76065;47.182;27.506;2024-03-23T11:32:37;99838.81;;;21.15;31.15
85641;BME280;76065;47.182;27.506;2024-03-23T11:35:03;99826.28;;;21.14;34.07
85641;BME280;76065;47.182;27.506;2024-03-23T11:37:29;99823.63;;;21.21;32.13
85641;BME280;76065;47.182;27.506;2024-03-23T11:39:54;99828.59;;;20.82;32.74
85641;BME280;76065;47.182;27.506;2024-03-23T11:42:20;99820.41;;;21.15;32.48
85641;BME280;76065;47.182;27.506;2024-03-23T11:44:47;99819.78;;;22.03;31.57
85641;BME280;76065;47.182;27.506;2024-03-23T11:47:12;99812.94;;;22.26;31.76
85641;BME280;76065;47.182;27.506;2024-03-23T11:49:38;99792.06;;;22.76;29.98
85641;BME280;76065;47.182;27.506;2024-03-23T11:52:06;99793.16;;;22.65;29.12
85641;BME280;76065;47.182;27.506;2024-03-23T11:54:33;99798.84;;;22.97;29.11
85641;BME280;76065;47.182;27.506;2024-03-23T11:56:59;99785.47;;;22.95;29.38
85641;BME280;76065;47.182;27.506;2024-03-23T12:01:59;99777.03;;;22.56;30.46
85641;BME280;76065;47.182;27.506;2024-03-23T12:04:26;99777.09;;;22.05;30.22
85641;BME280;76065;47.182;27.506;2024-03-23T12:07:15;99758.09;;;21.82;30.75
85641;BME280;76065;47.182;27.506;2024-03-23T12:09:43;99758.16;;;20.82;32.27
85641;BME280;76065;47.182;27.506;2024-03-23T12:12:13;99759.75;;;21.13;31.37
85641;BME280;76065;47.182;27.506;2024-03-23T12:14:40;99747.50;;;21.07;31.64
85641;BME280;76065;47.182;27.506;2024-03-23T12:17:13;99753.56;;;21.20;32.36
85641;BME280;76065;47.182;27.506;2024-03-23T12:19:40;99756.31;;;21.23;31.93
85641;BME280;76065;47.182;27.506;2024-03-23T12:22:11;99751.69;;;21.68;31.89
85641;BME280;76065;47.182;27.506;2024-03-23T12:24:36;99738.06;;;21.78;30.72
85641;BME280;76065;47.182;27.506;2024-03-23T12:27:03;99741.03;;;21.59;31.29
85641;BME280;76065;47.182;27.506;2024-03-23T12:29:33;99731.09;;;21.44;32.35
85641;BME280;76065;47.182;27.506;2024-03-23T12:32:00;99726.69;;;21.76;30.95
85641;BME280;76065;47.182;27.506;2024-03-23T12:34:27;99717.50;;;21.99;31.00
85641;BME280;76065;47.182;27.506;2024-03-23T12:36:53;99712.41;;;22.04;30.55
85641;BME280;76065;47.182;27.506;2024-03-23T12:39:19;99708.38;;;21.91;32.42
85641;BME280;76065;47.182;27.506;2024-03-23T12:41:47;99707.09;;;21.30;31.03
85641;BME280;76065;47.182;27.506;2024-03-23T12:44:13;99704.63;;;21.18;31.90
85641;BME280;76065;47.182;27.506;2024-03-23T12:46:39;99706.81;;;21.06;31.91
85641;BME280;76065;47.182;27.506;2024-03-23T12:49:05;99697.63;;;21.21;32.08
85641;BME280;76065;47.182;27.506;2024-03-23T12:51:31;99688.22;;;21.66;31.23
85641;BME280;76065;47.182;27.506;2024-03-23T12:53:57;99691.09;;;21.36;32.33
85641;BME280;76065;47.182;27.506;2024-03-23T12:56:23;99692.53;;;21.23;31.77
85641;BME280;76065;47.182;27.506;2024-03-23T12:58:48;99688.38;;;21.02;32.66
85641;BME280;76065;47.182;27.506;2024-03-23T13:01:19;99683.72;;;21.07;32.30
85641;BME280;76065;47.182;27.506;2024-03-23T13:03:48;99679.63;;;21.23;31.75
85641;BME280;76065;47.182;27.506;2024-03-23T13:06:14;99676.47;;;21.18;31.44
85641;BME280;76065;47.182;27.506;2024-03-23T13:08:40;99673.00;;;20.91;32.57
85641;BME280;76065;47.182;27.506;2024-03-23T13:11:09;99667.72;;;20.72;31.98
85641;BME280;76065;47.182;27.506;2024-03-23T13:13:38;99670.13;;;20.77;32.19
85641;BME280;76065;47.182;27.506;2024-03-23T13:16:04;99660.13;;;20.95;31.78
85641;BME280;76065;47.182;27.506;2024-03-23T13:18:32;99653.72;;;21.14;31.71
85641;BME280;76065;47.182;27.506;2024-03-23T13:20:58;99651.59;;;21.00;32.29
85641;BME280;76065;47.182;27.506;2024-03-23T13:23:24;99643.44;;;21.07;31.30
85641;BME280;76065;47.182;27.506;2024-03-23T13:25:54;99641.81;;;21.02;31.81
85641;BME280;76065;47.182;27.506;2024-03-23T13:28:23;99647.47;;;20.80;32.20
85641;BME280;76065;47.182;27.506;2024-03-23T13:30:56;99649.97;;;20.95;32.49
85641;BME280;76065;47.182;27.506;2024-03-23T13:33:23;99640.88;;;20.84;31.91
85641;BME280;76065;47.182;27.506;2024-03-23T13:35:50;99642.72;;;20.73;31.74
85641;BME280;76065;47.182;27.506;2024-03-23T13:38:15;99644.19;;;20.67;31.82
85641;BME280;76065;47.182;27.506;2024-03-23T13:40:58;99628.91;;;20.29;32.61
85641;BME280;76065;47.182;27.506;2024-03-23T13:43:25;99631.47;;;20.48;33.35
85641;BME280;76065;47.182;27.506;2024-03-23T13:45:56;99633.97;;;20.61;32.94
85641;BME280;76065;47.182;27.506;2024-03-23T13:48:24;99620.69;;;20.63;32.18